createdAt,value
2019-02-21T00:00:05.664Z,1014.90
2019-02-21T00:01:05.658Z,1014.86
2019-02-21T00:02:05.666Z,1014.91
2019-02-21T00:03:05.633Z,1014.92
2019-02-21T00:04:05.626Z,1014.94
2019-02-21T00:05:05.674Z,1014.90
2019-02-21T00:06:05.597Z,1014.88
2019-02-21T00:07:05.595Z,1014.94
2019-02-21T00:08:05.578Z,1014.97
2019-02-21T00:09:05.568Z,1014.98
2019-02-21T00:10:05.554Z,1014.91
2019-02-21T00:11:05.545Z,1014.91
2019-02-21T00:12:05.553Z,1014.96
2019-02-21T00:13:05.524Z,1014.90
2019-02-21T00:14:05.506Z,1014.91
2019-02-21T00:15:05.497Z,1014.91
2019-02-21T00:16:05.516Z,1014.88
2019-02-21T00:17:05.504Z,1014.92
2019-02-21T00:18:05.462Z,1014.92
2019-02-21T00:19:05.456Z,1014.96
2019-02-21T00:20:05.444Z,1014.94
2019-02-21T00:21:05.433Z,1015.00
2019-02-21T00:22:05.453Z,1014.98
2019-02-21T00:23:05.405Z,1015.04
2019-02-21T00:24:05.396Z,1015.05
2019-02-21T00:25:05.382Z,1015.01
2019-02-21T00:26:05.375Z,1015.02
2019-02-21T00:27:05.627Z,1015.03
2019-02-21T00:28:05.350Z,1015.00
2019-02-21T00:29:05.356Z,1015.03
2019-02-21T00:30:05.335Z,1015.00
2019-02-21T00:31:05.333Z,1015.02
2019-02-21T00:32:05.310Z,1014.97
2019-02-21T00:33:05.326Z,1015.01
2019-02-21T00:34:05.295Z,1015.07
2019-02-21T00:35:05.272Z,1015.04
2019-02-21T00:36:05.263Z,1015.03
2019-02-21T00:37:05.250Z,1015.06
2019-02-21T00:38:05.254Z,1015.09
2019-02-21T00:39:05.233Z,1015.01
2019-02-21T00:40:05.227Z,1015.03
2019-02-21T00:41:05.206Z,1015.07
2019-02-21T00:42:05.201Z,1015.08
2019-02-21T00:43:05.197Z,1015.05
2019-02-21T00:44:05.172Z,1015.06
2019-02-21T00:45:05.161Z,1015.04
2019-02-21T00:46:05.156Z,1015.07
2019-02-21T00:47:05.137Z,1014.99
2019-02-21T00:48:05.159Z,1015.00
2019-02-21T00:49:05.134Z,1015.03
2019-02-21T00:50:05.103Z,1015.03
2019-02-21T00:51:05.092Z,1015.06
2019-02-21T00:52:05.099Z,1015.06
2019-02-21T00:53:05.091Z,1015.06
2019-02-21T00:54:05.069Z,1015.06
2019-02-21T00:55:05.062Z,1015.05
2019-02-21T00:56:05.045Z,1015.05
2019-02-21T00:57:05.046Z,1015.05
2019-02-21T00:58:05.035Z,1015.05
2019-02-21T00:59:05.010Z,1015.07
2019-02-21T01:00:04.999Z,1015.13
2019-02-21T01:01:04.984Z,1015.10
2019-02-21T01:02:04.972Z,1015.16
2019-02-21T01:03:04.967Z,1015.12
2019-02-21T01:04:04.971Z,1015.14
2019-02-21T01:05:04.944Z,1015.14
2019-02-21T01:06:04.929Z,1015.11
2019-02-21T01:07:04.914Z,1015.13
2019-02-21T01:08:04.904Z,1015.12
2019-02-21T01:09:04.929Z,1015.14
2019-02-21T01:10:04.886Z,1015.12
2019-02-21T01:11:04.900Z,1015.16
2019-02-21T01:12:04.869Z,1015.13
2019-02-21T01:13:04.852Z,1015.17
2019-02-21T01:14:04.868Z,1015.15
2019-02-21T01:15:04.828Z,1015.16
2019-02-21T01:16:04.825Z,1015.21
2019-02-21T01:17:04.818Z,1015.21
2019-02-21T01:18:04.790Z,1015.22
2019-02-21T01:19:04.807Z,1015.23
2019-02-21T01:20:04.777Z,1015.24
2019-02-21T01:21:04.761Z,1015.24
2019-02-21T01:22:04.761Z,1015.22
2019-02-21T01:23:04.746Z,1015.23
2019-02-21T01:24:05.211Z,1015.26
2019-02-21T01:25:04.720Z,1015.19
2019-02-21T01:26:04.716Z,1015.22
2019-02-21T01:27:04.700Z,1015.21
2019-02-21T01:28:04.690Z,1015.21
2019-02-21T01:29:04.694Z,1015.20
2019-02-21T01:30:04.661Z,1015.24
2019-02-21T01:31:04.655Z,1015.20
2019-02-21T01:32:04.637Z,1015.19
2019-02-21T01:33:04.625Z,1015.18
2019-02-21T01:34:04.627Z,1015.18
2019-02-21T01:35:04.613Z,1015.14
2019-02-21T01:36:04.606Z,1015.12
2019-02-21T01:37:04.586Z,1015.11
2019-02-21T01:38:04.574Z,1015.12
2019-02-21T01:39:04.583Z,1015.09
2019-02-21T01:40:04.547Z,1015.06
2019-02-21T01:41:04.538Z,1015.10
2019-02-21T01:42:04.523Z,1015.08
2019-02-21T01:43:04.513Z,1015.09
2019-02-21T01:44:04.724Z,1015.15
2019-02-21T01:45:04.518Z,1015.10
2019-02-21T01:46:04.483Z,1015.10
2019-02-21T01:47:04.479Z,1015.13
2019-02-21T01:48:04.462Z,1015.08
2019-02-21T01:49:04.444Z,1015.08
2019-02-21T01:50:04.466Z,1015.12
2019-02-21T01:51:04.427Z,1015.08
2019-02-21T01:52:04.410Z,1015.06
2019-02-21T01:53:04.405Z,1015.09
2019-02-21T01:54:04.397Z,1015.12
2019-02-21T01:55:04.397Z,1015.14
2019-02-21T01:56:04.372Z,1015.13
2019-02-21T01:57:04.361Z,1015.11
2019-02-21T01:58:04.349Z,1015.09
2019-02-21T01:59:04.334Z,1015.11
2019-02-21T02:00:04.347Z,1015.13
2019-02-21T02:01:08.420Z,1015.09
2019-02-21T02:02:04.300Z,1015.10
2019-02-21T02:03:04.294Z,1015.09
2019-02-21T02:04:04.277Z,1015.10
2019-02-21T02:05:04.284Z,1015.11
2019-02-21T02:06:04.253Z,1015.07
2019-02-21T02:07:04.251Z,1015.12
2019-02-21T02:08:04.231Z,1015.12
2019-02-21T02:09:04.219Z,1015.09
2019-02-21T02:10:04.218Z,1015.11
2019-02-21T02:11:04.209Z,1015.10
2019-02-21T02:12:04.188Z,1015.12
2019-02-21T02:13:04.174Z,1015.13
2019-02-21T02:14:04.169Z,1015.08
2019-02-21T02:15:04.176Z,1015.11
2019-02-21T02:16:04.147Z,1015.14
2019-02-21T02:17:04.139Z,1015.19
2019-02-21T02:18:04.128Z,1015.17
2019-02-21T02:19:04.112Z,1015.20
2019-02-21T02:20:04.156Z,1015.18
2019-02-21T02:21:04.093Z,1015.21
2019-02-21T02:22:04.077Z,1015.17
2019-02-21T02:23:04.065Z,1015.15
2019-02-21T02:24:04.057Z,1015.17
2019-02-21T02:25:04.057Z,1015.18
2019-02-21T02:26:04.029Z,1015.17
2019-02-21T02:27:04.102Z,1015.22
2019-02-21T02:28:04.041Z,1015.19
2019-02-21T02:29:03.996Z,1015.24
2019-02-21T02:30:04.001Z,1015.20
2019-02-21T02:31:03.978Z,1015.17
2019-02-21T02:32:03.962Z,1015.17
2019-02-21T02:33:03.962Z,1015.20
2019-02-21T02:34:03.946Z,1015.23
2019-02-21T02:35:03.942Z,1015.17
2019-02-21T02:36:03.918Z,1015.17
2019-02-21T02:37:03.912Z,1015.14
2019-02-21T02:38:03.899Z,1015.16
2019-02-21T02:39:03.890Z,1015.15
2019-02-21T02:40:03.883Z,1015.15
2019-02-21T02:41:04.022Z,1015.16
2019-02-21T02:42:03.862Z,1015.22
2019-02-21T02:43:03.837Z,1015.17
2019-02-21T02:44:03.832Z,1015.26
2019-02-21T02:45:03.817Z,1015.26
2019-02-21T02:46:03.836Z,1015.23
2019-02-21T02:47:03.796Z,1015.20
2019-02-21T02:48:03.794Z,1015.21
2019-02-21T02:49:03.774Z,1015.25
2019-02-21T02:50:03.772Z,1015.22
2019-02-21T02:51:03.767Z,1015.23
2019-02-21T02:52:03.748Z,1015.22
2019-02-21T02:53:03.739Z,1015.23
2019-02-21T02:54:03.720Z,1015.26
2019-02-21T02:55:03.705Z,1015.28
2019-02-21T02:56:03.706Z,1015.30
2019-02-21T02:57:03.693Z,1015.28
2019-02-21T02:58:06.404Z,1015.24
2019-02-21T02:59:03.690Z,1015.26
2019-02-21T03:00:03.658Z,1015.26
2019-02-21T03:01:03.651Z,1015.30
2019-02-21T03:02:03.626Z,1015.30
2019-02-21T03:03:03.623Z,1015.28
2019-02-21T03:04:03.604Z,1015.24
2019-02-21T03:05:03.594Z,1015.27
2019-02-21T03:06:03.617Z,1015.28
2019-02-21T03:07:03.594Z,1015.29
2019-02-21T03:08:03.560Z,1015.27
2019-02-21T03:09:03.560Z,1015.29
2019-02-21T03:10:03.540Z,1015.34
2019-02-21T03:11:03.566Z,1015.34
2019-02-21T03:12:03.514Z,1015.30
2019-02-21T03:13:03.524Z,1015.39
2019-02-21T03:14:03.511Z,1015.41
2019-02-21T03:15:03.501Z,1015.41
2019-02-21T03:16:03.494Z,1015.40
2019-02-21T03:17:03.463Z,1015.34
2019-02-21T03:18:03.471Z,1015.40
2019-02-21T03:19:03.438Z,1015.32
2019-02-21T03:20:03.501Z,1015.26
2019-02-21T03:21:03.439Z,1015.27
2019-02-21T03:22:03.413Z,1015.25
2019-02-21T03:23:03.406Z,1015.21
2019-02-21T03:24:03.381Z,1015.27
2019-02-21T03:25:03.370Z,1015.30
2019-02-21T03:26:03.390Z,1015.31
2019-02-21T03:27:03.369Z,1015.33
2019-02-21T03:28:03.336Z,1015.32
2019-02-21T03:29:03.330Z,1015.36
2019-02-21T03:30:03.336Z,1015.40
2019-02-21T03:31:03.322Z,1015.41
2019-02-21T03:32:03.307Z,1015.44
2019-02-21T03:33:03.288Z,1015.38
2019-02-21T03:34:03.274Z,1015.35
2019-02-21T03:35:03.273Z,1015.38
2019-02-21T03:36:03.301Z,1015.42
2019-02-21T03:37:03.254Z,1015.43
2019-02-21T03:38:03.254Z,1015.46
2019-02-21T03:39:03.227Z,1015.49
2019-02-21T03:40:03.233Z,1015.53
2019-02-21T03:41:03.198Z,1015.56
2019-02-21T03:42:03.196Z,1015.58
2019-02-21T03:43:03.174Z,1015.53
2019-02-21T03:44:03.160Z,1015.56
2019-02-21T03:45:03.167Z,1015.60
2019-02-21T03:46:03.139Z,1015.61
2019-02-21T03:47:03.150Z,1015.61
2019-02-21T03:48:03.130Z,1015.58
2019-02-21T03:49:03.105Z,1015.63
2019-02-21T03:50:03.094Z,1015.67
2019-02-21T03:51:03.097Z,1015.66
2019-02-21T03:52:03.100Z,1015.64
2019-02-21T03:53:03.062Z,1015.67
2019-02-21T03:54:03.050Z,1015.66
2019-02-21T03:55:03.037Z,1015.72
2019-02-21T03:56:03.055Z,1015.70
2019-02-21T03:57:03.050Z,1015.71
2019-02-21T03:58:03.007Z,1015.73
2019-02-21T03:59:02.993Z,1015.72
2019-02-21T04:00:02.983Z,1015.77
2019-02-21T04:01:02.985Z,1015.79
2019-02-21T04:02:05.644Z,1015.78
2019-02-21T04:03:02.981Z,1015.75
2019-02-21T04:04:02.939Z,1015.76
2019-02-21T04:05:02.935Z,1015.70
2019-02-21T04:06:02.919Z,1015.71
2019-02-21T04:07:02.929Z,1015.70
2019-02-21T04:08:02.902Z,1015.70
2019-02-21T04:09:02.889Z,1015.74
2019-02-21T04:10:02.877Z,1015.69
2019-02-21T04:11:02.865Z,1015.69
2019-02-21T04:12:02.867Z,1015.71
2019-02-21T04:13:02.855Z,1015.70
2019-02-21T04:14:02.832Z,1015.68
2019-02-21T04:15:02.834Z,1015.73
2019-02-21T04:16:02.813Z,1015.69
2019-02-21T04:17:02.810Z,1015.68
2019-02-21T04:18:02.788Z,1015.71
2019-02-21T04:19:02.788Z,1015.71
2019-02-21T04:20:02.769Z,1015.70
2019-02-21T04:21:02.753Z,1015.69
2019-02-21T04:22:02.758Z,1015.71
2019-02-21T04:23:02.728Z,1015.67
2019-02-21T04:24:02.718Z,1015.72
2019-02-21T04:25:02.707Z,1015.69
2019-02-21T04:26:02.693Z,1015.68
2019-02-21T04:27:02.695Z,1015.62
2019-02-21T04:28:02.673Z,1015.60
2019-02-21T04:29:02.671Z,1015.60
2019-02-21T04:30:02.668Z,1015.58
2019-02-21T04:31:02.640Z,1015.55
2019-02-21T04:32:02.679Z,1015.57
2019-02-21T04:33:02.618Z,1015.58
2019-02-21T04:34:02.619Z,1015.60
2019-02-21T04:35:02.598Z,1015.59
2019-02-21T04:36:02.613Z,1015.58
2019-02-21T04:37:02.580Z,1015.58
2019-02-21T04:38:02.583Z,1015.62
2019-02-21T04:39:02.549Z,1015.60
2019-02-21T04:40:02.544Z,1015.62
2019-02-21T04:41:02.540Z,1015.60
2019-02-21T04:42:02.521Z,1015.60
2019-02-21T04:43:02.523Z,1015.58
2019-02-21T04:44:03.915Z,1015.57
2019-02-21T04:45:02.502Z,1015.64
2019-02-21T04:46:02.481Z,1015.61
2019-02-21T04:47:02.469Z,1015.64
2019-02-21T04:48:02.476Z,1015.63
2019-02-21T04:49:02.444Z,1015.66
2019-02-21T04:50:02.439Z,1015.65
2019-02-21T04:51:02.421Z,1015.63
2019-02-21T04:52:02.412Z,1015.65
2019-02-21T04:53:02.424Z,1015.66
2019-02-21T04:54:02.404Z,1015.64
2019-02-21T04:55:02.397Z,1015.61
2019-02-21T04:56:02.374Z,1015.64
2019-02-21T04:57:02.365Z,1015.67
2019-02-21T04:58:02.384Z,1015.61
2019-02-21T04:59:02.411Z,1015.64
2019-02-21T05:00:02.331Z,1015.63
2019-02-21T05:01:02.337Z,1015.68
2019-02-21T05:02:02.314Z,1015.63
2019-02-21T05:03:02.302Z,1015.71
2019-02-21T05:04:04.904Z,1015.70
2019-02-21T05:05:02.272Z,1015.73
2019-02-21T05:06:02.269Z,1015.75
2019-02-21T05:07:02.261Z,1015.80
2019-02-21T05:08:02.253Z,1015.76
2019-02-21T05:09:02.221Z,1015.78
2019-02-21T05:10:02.235Z,1015.82
2019-02-21T05:11:02.199Z,1015.80
2019-02-21T05:12:02.192Z,1015.77
2019-02-21T05:13:02.194Z,1015.79
2019-02-21T05:14:02.170Z,1015.77
2019-02-21T05:15:02.165Z,1015.78
2019-02-21T05:16:02.143Z,1015.78
2019-02-21T05:17:02.135Z,1015.80
2019-02-21T05:18:02.172Z,1015.76
2019-02-21T05:19:02.133Z,1015.78
2019-02-21T05:20:02.100Z,1015.77
2019-02-21T05:21:02.089Z,1015.79
2019-02-21T05:22:02.092Z,1015.78
2019-02-21T05:23:02.088Z,1015.77
2019-02-21T05:24:02.090Z,1015.74
2019-02-21T05:25:02.058Z,1015.81
2019-02-21T05:26:02.034Z,1015.75
2019-02-21T05:27:02.021Z,1015.74
2019-02-21T05:28:02.031Z,1015.79
2019-02-21T05:29:02.002Z,1015.69
2019-02-21T05:30:02.004Z,1015.69
2019-02-21T05:31:01.988Z,1015.67
2019-02-21T05:32:01.974Z,1015.70
2019-02-21T05:33:01.959Z,1015.68
2019-02-21T05:34:01.967Z,1015.67
2019-02-21T05:35:01.953Z,1015.63
2019-02-21T05:36:01.929Z,1015.62
2019-02-21T05:37:01.940Z,1015.64
2019-02-21T05:38:01.903Z,1015.61
2019-02-21T05:39:01.904Z,1015.62
2019-02-21T05:40:03.117Z,1015.55
2019-02-21T05:41:04.193Z,1015.51
2019-02-21T05:42:01.862Z,1015.53
2019-02-21T05:43:01.847Z,1015.52
2019-02-21T05:44:01.855Z,1015.42
2019-02-21T05:45:01.842Z,1015.42
2019-02-21T05:46:01.812Z,1015.42
2019-02-21T05:47:01.840Z,1015.42
2019-02-21T05:48:01.798Z,1015.48
2019-02-21T05:49:01.806Z,1015.48
2019-02-21T05:50:01.775Z,1015.46
2019-02-21T05:51:01.765Z,1015.53
2019-02-21T05:52:01.751Z,1015.53
2019-02-21T05:53:01.742Z,1015.54
2019-02-21T05:54:01.735Z,1015.51
2019-02-21T05:55:01.739Z,1015.50
2019-02-21T05:56:01.704Z,1015.53
2019-02-21T05:57:01.697Z,1015.50
2019-02-21T05:58:01.684Z,1015.53
2019-02-21T05:59:01.694Z,1015.50
2019-02-21T06:00:01.660Z,1015.45
2019-02-21T06:01:01.712Z,1015.46
2019-02-21T06:02:01.646Z,1015.45
2019-02-21T06:03:01.632Z,1015.46
2019-02-21T06:04:01.632Z,1015.51
2019-02-21T06:05:01.630Z,1015.44
2019-02-21T06:06:01.597Z,1015.46
2019-02-21T06:07:01.585Z,1015.47
2019-02-21T06:08:01.578Z,1015.51
2019-02-21T06:09:01.586Z,1015.51
2019-02-21T06:10:01.550Z,1015.57
2019-02-21T06:11:01.557Z,1015.56
2019-02-21T06:12:01.532Z,1015.61
2019-02-21T06:13:01.523Z,1015.61
2019-02-21T06:14:01.571Z,1015.56
2019-02-21T06:15:01.502Z,1015.58
2019-02-21T06:16:01.500Z,1015.62
2019-02-21T06:17:01.488Z,1015.60
2019-02-21T06:18:01.463Z,1015.56
2019-02-21T06:19:01.495Z,1015.62
2019-02-21T06:20:01.438Z,1015.64
2019-02-21T06:21:01.432Z,1015.57
2019-02-21T06:22:10.045Z,1015.62
2019-02-21T06:23:02.409Z,1015.67
2019-02-21T06:24:01.515Z,1015.66
2019-02-21T06:25:01.410Z,1015.64
2019-02-21T06:26:01.596Z,1015.67
2019-02-21T06:27:01.364Z,1015.70
2019-02-21T06:28:01.353Z,1015.72
2019-02-21T06:29:01.363Z,1015.66
2019-02-21T06:30:01.339Z,1015.70
2019-02-21T06:31:01.318Z,1015.74
2019-02-21T06:32:01.316Z,1015.75
2019-02-21T06:33:05.142Z,1015.70
2019-02-21T06:34:01.297Z,1015.68
2019-02-21T06:35:02.901Z,1015.70
2019-02-21T06:36:01.268Z,1015.73
2019-02-21T06:37:01.252Z,1015.74
2019-02-21T06:38:01.286Z,1015.73
2019-02-21T06:39:01.250Z,1015.76
2019-02-21T06:40:01.229Z,1015.77
2019-02-21T06:41:01.211Z,1015.77
2019-02-21T06:42:01.221Z,1015.79
2019-02-21T06:43:01.191Z,1015.82
2019-02-21T06:44:01.183Z,1015.85
2019-02-21T06:45:01.178Z,1015.83
2019-02-21T06:46:01.156Z,1015.84
2019-02-21T06:47:01.144Z,1015.89
2019-02-21T06:48:01.132Z,1015.89
2019-02-21T06:49:01.134Z,1015.89
2019-02-21T06:50:01.129Z,1015.87
2019-02-21T06:51:01.101Z,1015.87
2019-02-21T06:52:01.088Z,1015.88
2019-02-21T06:53:01.096Z,1015.85
2019-02-21T06:54:01.069Z,1015.90
2019-02-21T06:55:02.235Z,1015.95
2019-02-21T06:56:01.045Z,1015.93
2019-02-21T06:57:01.032Z,1016.03
2019-02-21T06:58:01.025Z,1015.93
2019-02-21T06:59:01.023Z,1015.94
2019-02-21T07:00:01.033Z,1015.96
2019-02-21T07:01:00.991Z,1015.96
2019-02-21T07:02:00.980Z,1015.90
2019-02-21T07:03:01.019Z,1015.96
2019-02-21T07:04:01.942Z,1015.94
2019-02-21T07:05:00.988Z,1015.99
2019-02-21T07:06:00.949Z,1015.87
2019-02-21T07:07:01.007Z,1015.87
2019-02-21T07:08:00.930Z,1015.81
2019-02-21T07:09:00.909Z,1015.81
2019-02-21T07:10:00.916Z,1015.91
2019-02-21T07:11:06.168Z,1015.90
2019-02-21T07:12:01.871Z,1015.96
2019-02-21T07:13:00.881Z,1015.99
2019-02-21T07:14:00.857Z,1016.00
2019-02-21T07:15:00.856Z,1016.02
2019-02-21T07:16:00.829Z,1016.06
2019-02-21T07:17:00.837Z,1016.15
2019-02-21T07:18:00.812Z,1016.17
2019-02-21T07:19:00.795Z,1016.17
2019-02-21T07:20:00.816Z,1016.17
2019-02-21T07:21:00.771Z,1016.15
2019-02-21T07:22:00.761Z,1016.17
2019-02-21T07:23:00.766Z,1016.16
2019-02-21T07:24:00.740Z,1016.18
2019-02-21T07:25:00.765Z,1016.19
2019-02-21T07:26:00.716Z,1016.18
2019-02-21T07:27:00.721Z,1016.17
2019-02-21T07:28:11.317Z,1016.16
2019-02-21T07:29:01.683Z,1016.17
2019-02-21T07:30:00.684Z,1016.18
2019-02-21T07:31:00.678Z,1016.20
2019-02-21T07:32:00.652Z,1016.24
2019-02-21T07:33:00.653Z,1016.23
2019-02-21T07:34:01.681Z,1016.23
2019-02-21T07:35:00.626Z,1016.19
2019-02-21T07:36:00.633Z,1016.25
2019-02-21T07:37:00.597Z,1016.21
2019-02-21T07:38:00.589Z,1016.22
2019-02-21T07:39:13.679Z,1016.21
2019-02-21T07:40:01.575Z,1016.23
2019-02-21T07:41:00.610Z,1016.26
2019-02-21T07:42:00.550Z,1016.25
2019-02-21T07:43:00.531Z,1016.24
2019-02-21T07:44:11.306Z,1016.33
2019-02-21T07:45:01.599Z,1016.27
2019-02-21T07:46:00.509Z,1016.29
2019-02-21T07:47:00.503Z,1016.34
2019-02-21T07:48:00.481Z,1016.30
2019-02-21T07:49:00.464Z,1016.31
2019-02-21T07:50:00.548Z,1016.32
2019-02-21T07:51:00.454Z,1016.34
2019-02-21T07:52:00.454Z,1016.35
2019-02-21T07:53:02.677Z,1016.38
2019-02-21T07:54:00.409Z,1016.36
2019-02-21T07:55:02.100Z,1016.36
2019-02-21T07:56:00.410Z,1016.37
2019-02-21T07:57:01.841Z,1016.36
2019-02-21T07:58:00.368Z,1016.39
2019-02-21T07:59:00.354Z,1016.44
2019-02-21T08:00:00.345Z,1016.41
2019-02-21T08:01:00.377Z,1016.38
2019-02-21T08:02:00.317Z,1016.44
2019-02-21T08:03:00.313Z,1016.47
2019-02-21T08:04:00.296Z,1016.45
2019-02-21T08:05:02.180Z,1016.44
2019-02-21T08:06:00.285Z,1016.48
2019-02-21T08:07:00.265Z,1016.47
2019-02-21T08:08:00.252Z,1016.56
2019-02-21T08:09:00.245Z,1016.48
2019-02-21T08:10:00.322Z,1016.49
2019-02-21T08:11:00.243Z,1016.54
2019-02-21T08:12:00.213Z,1016.54
2019-02-21T08:13:00.198Z,1016.53
2019-02-21T08:14:00.363Z,1016.57
2019-02-21T08:15:00.447Z,1016.56
2019-02-21T08:16:00.175Z,1016.52
2019-02-21T08:17:00.189Z,1016.52
2019-02-21T08:18:00.147Z,1016.53
2019-02-21T08:19:00.130Z,1016.54
2019-02-21T08:20:08.011Z,1016.51
2019-02-21T08:21:01.121Z,1016.51
2019-02-21T08:22:00.412Z,1016.54
2019-02-21T08:23:02.850Z,1016.49
2019-02-21T08:24:00.092Z,1016.51
2019-02-21T08:25:00.263Z,1016.52
2019-02-21T08:26:00.053Z,1016.54
2019-02-21T08:27:00.055Z,1016.54
2019-02-21T08:28:00.028Z,1016.61
2019-02-21T08:29:00.019Z,1016.57
2019-02-21T08:30:00.022Z,1016.60
2019-02-21T08:31:00.020Z,1016.64
2019-02-21T08:31:59.994Z,1016.70
2019-02-21T08:32:59.971Z,1016.67
2019-02-21T08:33:59.959Z,1016.63
2019-02-21T08:34:59.958Z,1016.65
2019-02-21T08:35:59.962Z,1016.65
2019-02-21T08:36:59.946Z,1016.68
2019-02-21T08:37:59.914Z,1016.65
2019-02-21T08:38:59.932Z,1016.65
2019-02-21T08:39:59.897Z,1016.64
2019-02-21T08:40:59.922Z,1016.66
2019-02-21T08:41:59.881Z,1016.68
2019-02-21T08:42:59.887Z,1016.64
2019-02-21T08:43:59.853Z,1016.64
2019-02-21T08:44:59.835Z,1016.62
2019-02-21T08:45:59.851Z,1016.64
2019-02-21T08:46:59.834Z,1016.59
2019-02-21T08:47:59.807Z,1016.61
2019-02-21T08:48:59.843Z,1016.61
2019-02-21T08:49:59.927Z,1016.61
2019-02-21T08:50:59.775Z,1016.62
2019-02-21T08:51:59.784Z,1016.68
2019-02-21T08:53:01.031Z,1016.72
2019-02-21T08:53:59.737Z,1016.70
2019-02-21T08:55:00.627Z,1016.63
2019-02-21T08:55:59.713Z,1016.68
2019-02-21T08:56:59.715Z,1016.69
2019-02-21T08:57:59.778Z,1016.71
2019-02-21T08:58:59.692Z,1016.75
2019-02-21T08:59:59.671Z,1016.78
2019-02-21T09:00:59.660Z,1016.82
2019-02-21T09:01:59.678Z,1016.78
2019-02-21T09:02:59.644Z,1016.81
2019-02-21T09:04:09.880Z,1016.81
2019-02-21T09:05:00.613Z,1016.83
2019-02-21T09:05:59.603Z,1016.84
2019-02-21T09:06:59.607Z,1016.84
2019-02-21T09:07:59.583Z,1016.84
2019-02-21T09:08:59.575Z,1016.80
2019-02-21T09:09:59.559Z,1016.79
2019-02-21T09:10:59.560Z,1016.86
2019-02-21T09:11:59.575Z,1016.82
2019-02-21T09:12:59.526Z,1016.85
2019-02-21T09:13:59.516Z,1016.81
2019-02-21T09:14:59.511Z,1016.82
2019-02-21T09:15:59.497Z,1016.87
2019-02-21T09:16:59.507Z,1016.82
2019-02-21T09:17:59.472Z,1016.80
2019-02-21T09:18:59.462Z,1016.80
2019-02-21T09:19:59.496Z,1016.84
2019-02-21T09:20:59.459Z,1016.76
2019-02-21T09:21:59.467Z,1016.80
2019-02-21T09:22:59.414Z,1016.78
2019-02-21T09:23:59.405Z,1016.83
2019-02-21T09:24:59.413Z,1016.86
2019-02-21T09:25:59.382Z,1016.91
2019-02-21T09:27:00.283Z,1016.90
2019-02-21T09:27:59.975Z,1016.90
2019-02-21T09:28:59.357Z,1016.95
2019-02-21T09:29:59.337Z,1016.96
2019-02-21T09:30:59.329Z,1016.94
2019-02-21T09:31:59.329Z,1016.92
2019-02-21T09:32:59.328Z,1016.89
2019-02-21T09:33:59.309Z,1016.93
2019-02-21T09:34:59.282Z,1016.90
2019-02-21T09:35:59.287Z,1016.91
2019-02-21T09:36:59.280Z,1016.92
2019-02-21T09:37:59.260Z,1016.91
2019-02-21T09:38:59.251Z,1016.83
2019-02-21T09:39:59.249Z,1016.86
2019-02-21T09:40:59.217Z,1016.82
2019-02-21T09:41:59.207Z,1016.82
2019-02-21T09:42:59.212Z,1016.92
2019-02-21T09:43:59.184Z,1016.84
2019-02-21T09:44:59.221Z,1016.81
2019-02-21T09:45:59.173Z,1016.84
2019-02-21T09:46:59.152Z,1016.79
2019-02-21T09:47:59.161Z,1016.79
2019-02-21T09:48:59.143Z,1016.76
2019-02-21T09:49:59.146Z,1016.80
2019-02-21T09:50:59.154Z,1016.80
2019-02-21T09:51:59.107Z,1016.76
2019-02-21T09:52:59.134Z,1016.81
2019-02-21T09:53:59.087Z,1016.82
2019-02-21T09:54:59.067Z,1016.82
2019-02-21T09:55:59.058Z,1016.79
2019-02-21T09:56:59.047Z,1016.78
2019-02-21T09:57:59.049Z,1016.81
2019-02-21T09:58:59.025Z,1016.79
2019-02-21T09:59:59.003Z,1016.81
2019-02-21T10:00:58.993Z,1016.81
2019-02-21T10:01:59.056Z,1016.80
2019-02-21T10:02:58.988Z,1016.82
2019-02-21T10:03:58.961Z,1016.85
2019-02-21T10:05:05.123Z,1016.86
2019-02-21T10:05:59.956Z,1016.82
2019-02-21T10:06:58.924Z,1016.84
2019-02-21T10:07:58.932Z,1016.86
2019-02-21T10:08:58.927Z,1016.88
2019-02-21T10:10:00.806Z,1016.86
2019-02-21T10:11:00.753Z,1016.91
2019-02-21T10:11:59.216Z,1016.91
2019-02-21T10:12:58.910Z,1016.90
2019-02-21T10:13:58.847Z,1016.91
2019-02-21T10:14:58.841Z,1016.87
2019-02-21T10:15:58.842Z,1016.90
2019-02-21T10:16:58.818Z,1016.91
2019-02-21T10:17:58.827Z,1016.92
2019-02-21T10:18:58.820Z,1016.94
2019-02-21T10:19:58.797Z,1016.94
2019-02-21T10:20:58.771Z,1016.96
2019-02-21T10:21:58.777Z,1016.99
2019-02-21T10:22:58.780Z,1016.94
2019-02-21T10:23:58.744Z,1017.00
2019-02-21T10:24:58.745Z,1016.99
2019-02-21T10:25:58.774Z,1017.04
2019-02-21T10:26:58.706Z,1016.98
2019-02-21T10:27:59.262Z,1016.99
2019-02-21T10:28:58.696Z,1016.96
2019-02-21T10:29:58.676Z,1016.97
2019-02-21T10:30:58.657Z,1016.97
2019-02-21T10:31:58.650Z,1017.01
2019-02-21T10:32:58.644Z,1017.03
2019-02-21T10:33:58.646Z,1016.96
2019-02-21T10:34:58.653Z,1016.95
2019-02-21T10:36:00.417Z,1016.92
2019-02-21T10:36:58.600Z,1016.91
2019-02-21T10:37:58.585Z,1016.89
2019-02-21T10:38:58.584Z,1016.92
2019-02-21T10:39:58.569Z,1016.91
2019-02-21T10:40:58.564Z,1017.00
2019-02-21T10:41:58.537Z,1016.96
2019-02-21T10:42:58.552Z,1016.95
2019-02-21T10:43:58.542Z,1016.94
2019-02-21T10:44:58.527Z,1016.91
2019-02-21T10:45:58.508Z,1016.94
2019-02-21T10:46:58.479Z,1016.92
2019-02-21T10:47:58.479Z,1016.90
2019-02-21T10:48:58.474Z,1016.91
2019-02-21T10:49:58.446Z,1016.90
2019-02-21T10:50:58.448Z,1016.91
2019-02-21T10:51:58.428Z,1016.90
2019-02-21T10:52:58.426Z,1016.90
2019-02-21T10:53:58.421Z,1016.93
2019-02-21T10:54:58.407Z,1016.92
2019-02-21T10:55:58.380Z,1016.86
2019-02-21T10:56:58.372Z,1016.93
2019-02-21T10:57:58.363Z,1016.93
2019-02-21T10:58:58.372Z,1016.91
2019-02-21T10:59:58.336Z,1016.86
2019-02-21T11:00:58.340Z,1016.88
2019-02-21T11:01:58.318Z,1016.93
2019-02-21T11:02:58.300Z,1016.91
2019-02-21T11:03:58.307Z,1016.91
2019-02-21T11:04:58.281Z,1016.90
2019-02-21T11:05:58.281Z,1016.86
2019-02-21T11:06:58.262Z,1016.90
2019-02-21T11:07:58.251Z,1016.88
2019-02-21T11:08:58.300Z,1016.86
2019-02-21T11:09:58.229Z,1016.87
2019-02-21T11:10:58.220Z,1016.84
2019-02-21T11:11:58.205Z,1016.89
2019-02-21T11:12:58.192Z,1016.84
2019-02-21T11:13:58.181Z,1016.87
2019-02-21T11:14:58.180Z,1016.89
2019-02-21T11:15:58.165Z,1016.85
2019-02-21T11:16:58.145Z,1016.86
2019-02-21T11:17:58.140Z,1016.88
2019-02-21T11:18:58.127Z,1016.80
2019-02-21T11:19:58.155Z,1016.76
2019-02-21T11:20:59.380Z,1016.79
2019-02-21T11:21:58.109Z,1016.73
2019-02-21T11:22:58.093Z,1016.72
2019-02-21T11:23:58.120Z,1016.77
2019-02-21T11:24:58.081Z,1016.72
2019-02-21T11:25:57.613Z,1016.78
2019-02-21T11:26:57.583Z,1016.70
2019-02-21T11:27:57.562Z,1016.68
2019-02-21T11:28:57.536Z,1016.68
2019-02-21T11:29:57.532Z,1016.61
2019-02-21T11:30:57.479Z,1016.66
2019-02-21T11:31:57.450Z,1016.64
2019-02-21T11:33:52.234Z,1016.65
2019-02-21T11:34:52.207Z,1016.68
2019-02-21T11:35:52.179Z,1016.64
2019-02-21T11:36:52.169Z,1016.68
2019-02-21T11:37:52.160Z,1016.68
2019-02-21T11:38:52.152Z,1016.69
2019-02-21T11:39:52.165Z,1016.64
2019-02-21T11:40:52.265Z,1016.64
2019-02-21T11:41:52.118Z,1016.59
2019-02-21T11:42:52.104Z,1016.56
2019-02-21T11:43:52.094Z,1016.58
2019-02-21T11:44:52.468Z,1016.58
2019-02-21T11:45:55.294Z,1016.54
2019-02-21T11:46:53.089Z,1016.53
2019-02-21T11:47:52.046Z,1016.56
2019-02-21T11:48:52.044Z,1016.57
2019-02-21T11:49:52.041Z,1016.59
2019-02-21T11:50:52.033Z,1016.56
2019-02-21T11:51:52.021Z,1016.62
2019-02-21T11:52:51.994Z,1016.59
2019-02-21T11:53:51.987Z,1016.57
2019-02-21T11:54:51.997Z,1016.58
2019-02-21T11:55:51.963Z,1016.53
2019-02-21T11:56:51.965Z,1016.53
2019-02-21T11:57:51.984Z,1016.60
2019-02-21T11:58:51.931Z,1016.54
2019-02-21T11:59:51.954Z,1016.55
2019-02-21T12:00:51.923Z,1016.57
2019-02-21T12:01:51.902Z,1016.57
2019-02-21T12:02:51.902Z,1016.57
2019-02-21T12:03:51.898Z,1016.50
2019-02-21T12:04:51.892Z,1016.52
2019-02-21T12:05:51.876Z,1016.50